TimeMDT,TemperatureF,Dew PointF,Humidity,Sea Level PressureIn,VisibilityMPH,Wind Direction,Wind SpeedMPH,Gust SpeedMPH,PrecipitationIn,Events,Conditions,WindDirDegrees,DateUTC
12:53 AM,39.9,34.0,79,29.84,10.0,NE,5.8,-,N/A,,Mostly Cloudy,40,2012-10-13 06:53:00
1:53 AM,37.0,32.0,82,29.85,10.0,East,5.8,-,N/A,,Partly Cloudy,90,2012-10-13 07:53:00
2:53 AM,33.1,28.9,85,29.87,10.0,Calm,Calm,-,N/A,,Clear,0,2012-10-13 08:53:00
3:53 AM,35.1,32.0,89,29.87,10.0,Calm,Calm,-,N/A,,Clear,0,2012-10-13 09:53:00
4:53 AM,30.9,28.0,89,29.89,10.0,NW,3.5,-,N/A,,Clear,320,2012-10-13 10:53:00
5:53 AM,28.0,27.0,96,29.96,10.0,Calm,Calm,-,N/A,,Clear,0,2012-10-13 11:53:00
6:53 AM,26.1,24.1,92,30.00,10.0,ENE,4.6,-,N/A,,Clear,70,2012-10-13 12:53:00
7:17 AM,26.6,26.6,100,30.08,8.0,Calm,Calm,-,N/A,,Mostly Cloudy,0,2012-10-13 13:17:00
7:25 AM,26.6,26.6,100,30.09,5.0,Calm,Calm,-,N/A,,Mostly Cloudy,0,2012-10-13 13:25:00
7:53 AM,27.0,26.1,96,30.04,1.5,Calm,Calm,-,N/A,,Overcast,0,2012-10-13 13:53:00
8:03 AM,28.4,28.4,100,30.10,0.5,Calm,Calm,-,N/A,Fog,Light Freezing Fog,0,2012-10-13 14:03:00
8:53 AM,32.0,30.9,96,30.04,0.2,Calm,Calm,-,N/A,Fog,Fog,0,2012-10-13 14:53:00
9:17 AM,32.0,32.0,100,30.13,2.0,Calm,Calm,-,N/A,,Mostly Cloudy,0,2012-10-13 15:17:00
9:23 AM,33.8,33.8,100,30.13,10.0,Calm,Calm,-,N/A,,Scattered Clouds,0,2012-10-13 15:23:00
9:53 AM,41.0,35.1,79,30.02,10.0,Calm,Calm,-,N/A,,Clear,0,2012-10-13 15:53:00
10:53 AM,48.0,36.0,63,30.00,10.0,Variable,3.5,-,N/A,,Clear,0,2012-10-13 16:53:00
11:53 AM,55.9,30.0,37,29.99,10.0,NW,19.6,25.3,N/A,,Mostly Cloudy,320,2012-10-13 17:53:00
12:53 PM,52.0,33.1,49,30.02,10.0,WNW,18.4,-,N/A,,Mostly Cloudy,300,2012-10-13 18:53:00
1:53 PM,53.1,32.0,45,30.03,10.0,NNW,24.2,33.4,N/A,,Mostly Cloudy,330,2012-10-13 19:53:00
2:53 PM,57.0,33.1,40,30.03,10.0,NW,15.0,25.3,N/A,,Mostly Cloudy,320,2012-10-13 20:53:00
3:53 PM,52.0,34.0,50,30.06,10.0,NNW,21.9,29.9,N/A,,Partly Cloudy,340,2012-10-13 21:53:00
4:53 PM,51.1,35.1,54,30.12,10.0,NNW,18.4,27.6,N/A,,Mostly Cloudy,340,2012-10-13 22:53:00
5:53 PM,48.2,33.8,58,30.23,10.0,NNW,19.6,25.3,N/A,,Mostly Cloudy,330,2012-10-13 23:53:00
6:53 PM,45.0,33.1,63,30.19,10.0,NNW,12.7,-,N/A,,Clear,330,2012-10-14 00:53:00
7:53 PM,44.6,33.8,66,30.26,10.0,NW,9.2,-,N/A,,Clear,320,2012-10-14 01:53:00
8:53 PM,41.0,32.0,70,30.23,10.0,NNW,8.1,-,N/A,,Overcast,330,2012-10-14 02:53:00
9:53 PM,41.0,32.0,70,30.21,10.0,North,8.1,-,N/A,,Mostly Cloudy,350,2012-10-14 03:53:00
10:53 PM,42.8,33.8,70,30.32,10.0,NW,6.9,-,N/A,,Overcast,310,2012-10-14 04:53:00
11:53 PM,44.1,33.1,65,30.15,10.0,West,3.5,-,N/A,,Overcast,280,2012-10-14 05:53:00